Time;durP1;ratioP1;P1;durP2;ratioP2;P2;SDS_P1;SDS_P2;PMS_P1;PMS_P2;Temp;Humidity;BMP_temperature;BMP_pressure;BME280_temperature;BME280_humidity;BME280_pressure;Samples;Min_cycle;Max_cycle;Signal;HPM_P1;HPM_P2
2021/12/20 00:02:05;;;;;;;0.32;0.32;;;4.80;99.90;;;;;;5007657;28;20030;-71
2021/12/20 00:04:31;;;;;;;0.10;0.10;;;4.80;99.90;;;;;;5008358;28;20040;-71
2021/12/20 00:06:57;;;;;;;0.20;0.20;;;4.80;99.90;;;;;;5002548;28;20026;-73
2021/12/20 00:09:22;;;;;;;0.10;0.10;;;4.70;99.90;;;;;;4989627;28;20026;-71
2021/12/20 00:11:48;;;;;;;0.10;0.10;;;4.80;99.90;;;;;;4989961;28;20045;-71
2021/12/20 00:14:14;;;;;;;0.10;0.10;;;4.80;99.90;;;;;;4989363;28;20804;-70
2021/12/20 00:16:39;;;;;;;0.10;0.10;;;4.70;99.90;;;;;;4989707;28;20030;-71
2021/12/20 00:19:09;;;;;;;0.28;0.28;;;4.80;99.90;;;;;;4989691;28;20022;-71
2021/12/20 00:21:35;;;;;;;0.10;0.10;;;4.80;99.90;;;;;;4992678;28;20100;-71
2021/12/20 00:24:01;;;;;;;0.10;0.10;;;4.70;99.90;;;;;;4993501;28;20037;-72
2021/12/20 00:26:26;;;;;;;0.10;0.10;;;4.70;99.90;;;;;;4994184;28;20042;-72
2021/12/20 00:28:52;;;;;;;0.25;0.25;;;4.80;99.90;;;;;;4993470;28;20033;-71
2021/12/20 00:31:17;;;;;;;12.35;4.57;;;4.80;99.90;;;;;;4993502;28;20026;-72
2021/12/20 00:33:43;;;;;;;0.10;0.10;;;4.80;99.90;;;;;;4993882;28;20035;-71
2021/12/20 00:36:09;;;;;;;0.10;0.10;;;4.80;99.90;;;;;;4993693;28;20092;-71
2021/12/20 00:41:21;;;;;;;0.10;0.10;;;4.80;99.90;;;;;;5004623;28;20041;-70
2021/12/20 00:43:46;;;;;;;0.10;0.10;;;4.80;99.90;;;;;;5016640;28;20049;-71
2021/12/20 00:46:12;;;;;;;0.10;0.10;;;4.80;99.90;;;;;;5013254;28;20036;-72
2021/12/20 00:48:38;;;;;;;0.00;0.00;;;4.80;99.90;;;;;;5013006;28;20080;-70
2021/12/20 00:51:04;;;;;;;0.10;0.10;;;4.80;99.90;;;;;;5001918;28;20034;-71
2021/12/20 00:53:29;;;;;;;0.13;0.13;;;4.80;99.90;;;;;;4993042;28;20101;-71
2021/12/20 00:55:55;;;;;;;0.15;0.15;;;4.80;99.90;;;;;;5010730;28;20449;-71
2021/12/20 00:58:21;;;;;;;0.10;0.10;;;4.80;99.90;;;;;;5009098;28;20034;-71
2021/12/20 01:00:51;;;;;;;0.10;0.10;;;4.80;99.90;;;;;;5011941;28;20112;-70
2021/12/20 01:03:18;;;;;;;0.10;0.10;;;4.90;99.90;;;;;;5012558;28;20032;-71
2021/12/20 01:05:44;;;;;;;0.10;0.10;;;4.80;99.90;;;;;;5013599;28;20022;-70
2021/12/20 01:08:10;;;;;;;0.10;0.10;;;4.90;99.90;;;;;;4996575;28;20057;-70
2021/12/20 01:10:39;;;;;;;1.38;1.38;;;4.90;99.90;;;;;;4993615;28;20027;-71
2021/12/20 01:13:06;;;;;;;0.55;0.55;;;4.90;99.90;;;;;;4992679;28;20065;-73
2021/12/20 01:15:36;;;;;;;0.10;0.10;;;4.90;99.90;;;;;;4992929;28;20081;-72
2021/12/20 01:18:04;;;;;;;0.40;0.40;;;4.80;99.90;;;;;;4992905;28;20022;-72
2021/12/20 01:20:31;;;;;;;0.32;0.32;;;4.80;99.90;;;;;;4992657;28;20045;-71
2021/12/20 01:22:58;;;;;;;0.10;0.10;;;4.80;99.90;;;;;;4992849;28;20034;-71
2021/12/20 01:25:24;;;;;;;0.10;0.10;;;4.80;99.90;;;;;;4992605;28;20030;-71
2021/12/20 01:27:51;;;;;;;0.10;0.10;;;4.80;99.90;;;;;;4992886;28;20149;-71
2021/12/20 01:30:19;;;;;;;0.17;0.17;;;4.80;99.90;;;;;;4992110;28;20069;-71
2021/12/20 01:32:45;;;;;;;0.10;0.10;;;4.70;99.90;;;;;;4991986;28;20113;-71
2021/12/20 01:35:12;;;;;;;0.10;0.10;;;4.70;99.90;;;;;;4992582;28;20117;-71
2021/12/20 01:37:39;;;;;;;0.10;0.10;;;4.70;99.90;;;;;;4992681;28;20015;-71
2021/12/20 01:40:08;;;;;;;0.00;0.00;;;4.80;99.90;;;;;;4991033;28;20034;-70
2021/12/20 01:42:35;;;;;;;0.10;0.10;;;4.80;99.90;;;;;;5010748;28;20217;-70
2021/12/20 01:45:02;;;;;;;0.20;0.20;;;4.80;99.90;;;;;;5011622;28;20472;-71
2021/12/20 01:47:31;;;;;;;0.10;0.10;;;4.80;99.90;;;;;;5012023;28;20026;-71
2021/12/20 01:50:07;;;;;;;0.10;0.10;;;4.70;99.90;;;;;;5008146;28;20022;-71
2021/12/20 01:52:42;;;;;;;8.10;4.60;;;4.70;99.90;;;;;;4998071;28;20101;-71
2021/12/20 01:55:10;;;;;;;0.10;0.10;;;4.80;99.90;;;;;;5014590;28;20014;-71
2021/12/20 01:57:36;;;;;;;0.10;0.10;;;4.80;99.90;;;;;;5031571;28;20180;-71
2021/12/20 02:00:07;;;;;;;0.10;0.10;;;4.80;99.90;;;;;;5008827;28;20508;-70
2021/12/20 02:02:33;;;;;;;0.10;0.10;;;4.70;99.90;;;;;;4991885;28;20018;-71
2021/12/20 02:05:10;;;;;;;0.20;0.20;;;4.70;99.90;;;;;;4990484;28;20237;-71
2021/12/20 02:08:01;;;;;;;0.10;0.10;;;4.70;99.90;;;;;;5003723;28;20468;-71
2021/12/20 02:10:21;;;;;;;0.85;0.85;;;4.70;99.90;;;;;;4997879;28;20129;-71
2021/12/20 02:12:47;;;;;;;0.10;0.10;;;4.70;99.90;;;;;;4991651;28;20102;-71
2021/12/20 02:15:13;;;;;;;0.10;0.10;;;4.60;99.90;;;;;;4991714;28;20030;-71
2021/12/20 02:17:40;;;;;;;0.10;0.10;;;4.60;99.90;;;;;;4991643;28;20030;-71
2021/12/20 02:20:07;;;;;;;0.50;0.50;;;4.60;99.90;;;;;;4991543;28;20033;-70
2021/12/20 02:22:32;;;;;;;0.10;0.10;;;4.50;99.90;;;;;;4991642;28;20092;-70
2021/12/20 02:24:58;;;;;;;0.10;0.10;;;4.60;99.90;;;;;;4991247;28;20065;-70
2021/12/20 02:27:24;;;;;;;0.20;0.20;;;4.50;99.90;;;;;;4991587;28;20086;-71
2021/12/20 02:30:13;;;;;;;0.10;0.10;;;4.60;99.90;;;;;;4990931;28;20027;-70
2021/12/20 02:38:19;;;;;;;0.10;0.10;;;4.60;99.90;;;;;;5006150;28;20068;-71
2021/12/20 02:40:46;;;;;;;0.10;0.10;;;4.60;99.90;;;;;;5010645;28;20448;-72
2021/12/20 02:43:15;;;;;;;0.10;0.10;;;4.60;99.90;;;;;;4998490;28;20041;-71
2021/12/20 02:45:42;;;;;;;0.17;0.17;;;4.50;99.90;;;;;;4991019;28;20066;-72
2021/12/20 02:48:08;;;;;;;2.72;1.75;;;4.50;99.90;;;;;;4989406;28;20037;-70
2021/12/20 02:50:33;;;;;;;4.05;3.83;;;4.60;99.90;;;;;;4990836;28;20022;-70
2021/12/20 02:52:59;;;;;;;0.10;0.10;;;4.50;99.90;;;;;;4989410;28;20104;-71
2021/12/20 02:55:25;;;;;;;0.10;0.10;;;4.50;99.90;;;;;;5005651;28;20033;-70
2021/12/20 02:57:50;;;;;;;0.38;0.38;;;4.50;99.90;;;;;;5010711;28;20431;-71
2021/12/20 03:00:16;;;;;;;0.10;0.10;;;4.60;99.90;;;;;;5012696;28;20627;-70
2021/12/20 03:02:42;;;;;;;0.10;0.10;;;4.60;99.90;;;;;;5017007;28;20079;-71
2021/12/20 03:05:09;;;;;;;0.10;0.10;;;4.60;99.90;;;;;;5010196;28;20072;-71
2021/12/20 03:07:44;;;;;;;0.10;0.10;;;4.60;99.90;;;;;;4998238;28;20161;-71
2021/12/20 03:10:12;;;;;;;0.10;0.10;;;4.60;99.90;;;;;;4990330;28;20023;-70
2021/12/20 03:12:38;;;;;;;0.10;0.10;;;4.50;99.90;;;;;;4989486;28;20499;-71
2021/12/20 03:15:11;;;;;;;0.10;0.10;;;4.60;99.90;;;;;;4990413;28;20090;-72
2021/12/20 03:17:37;;;;;;;;;;;4.60;99.90;;;;;;4991257;28;20034;-71
2021/12/20 03:20:03;;;;;;;0.10;0.10;;;4.70;99.90;;;;;;4990305;28;19910;-71
2021/12/20 03:22:29;;;;;;;0.95;0.95;;;4.70;99.90;;;;;;4990348;28;20026;-71
2021/12/20 03:24:55;;;;;;;0.10;0.10;;;4.60;99.90;;;;;;4990420;28;20080;-71
2021/12/20 03:27:20;;;;;;;0.10;0.10;;;4.50;99.90;;;;;;4990364;28;20038;-70
2021/12/20 03:29:46;;;;;;;0.10;0.10;;;4.50;99.90;;;;;;4990166;28;20030;-71
2021/12/20 03:32:12;;;;;;;0.13;0.13;;;4.50;99.90;;;;;;4988934;28;20241;-71
2021/12/20 03:34:38;;;;;;;0.10;0.10;;;4.50;99.90;;;;;;5001369;28;20116;-71
2021/12/20 03:37:03;;;;;;;0.10;0.10;;;4.60;99.90;;;;;;5009368;28;20144;-71
2021/12/20 03:39:29;;;;;;;0.10;0.10;;;4.50;99.90;;;;;;5009515;28;20448;-71
2021/12/20 03:41:55;;;;;;;1.13;1.13;;;4.50;99.90;;;;;;5008587;28;20026;-71
2021/12/20 03:44:21;;;;;;;0.10;0.10;;;4.50;99.90;;;;;;4994098;28;20037;-71
2021/12/20 03:46:47;;;;;;;1.20;1.10;;;4.50;99.90;;;;;;4990317;28;20034;-70
2021/12/20 03:49:12;;;;;;;0.10;0.10;;;4.60;99.90;;;;;;4989653;28;20041;-70
2021/12/20 03:51:38;;;;;;;0.10;0.10;;;4.50;99.90;;;;;;4989914;28;20416;-70
2021/12/20 03:54:05;;;;;;;0.10;0.10;;;4.50;99.90;;;;;;4993523;28;20061;-71
2021/12/20 03:56:31;;;;;;;0.85;0.85;;;4.50;99.90;;;;;;5009601;28;20022;-71
2021/12/20 03:58:56;;;;;;;0.20;0.20;;;4.50;99.90;;;;;;5009498;28;20361;-71
2021/12/20 04:01:23;;;;;;;0.28;0.28;;;4.50;99.90;;;;;;4995577;28;20404;-70
2021/12/20 04:03:50;;;;;;;0.10;0.10;;;4.40;99.90;;;;;;4989643;28;20032;-71
2021/12/20 04:06:16;;;;;;;1.08;1.08;;;4.40;99.90;;;;;;4999240;28;20489;-70
2021/12/20 04:08:42;;;;;;;0.10;0.10;;;4.40;99.90;;;;;;5016057;28;20083;-71
2021/12/20 04:11:09;;;;;;;0.10;0.10;;;4.30;99.90;;;;;;5004978;28;20061;-70
2021/12/20 04:13:35;;;;;;;0.10;0.10;;;4.30;99.90;;;;;;4989851;28;20073;-70
2021/12/20 04:16:01;;;;;;;0.10;0.10;;;4.30;99.90;;;;;;4989905;28;20058;-71
2021/12/20 04:18:29;;;;;;;0.30;0.30;;;4.30;99.90;;;;;;4988052;28;20037;-71
2021/12/20 04:20:55;;;;;;;0.10;0.10;;;4.30;99.90;;;;;;4989504;28;20465;-70
2021/12/20 04:23:21;;;;;;;0.10;0.10;;;4.30;99.90;;;;;;4989518;28;20092;-70
2021/12/20 04:25:46;;;;;;;0.10;0.10;;;4.40;99.90;;;;;;4989951;28;20512;-71
2021/12/20 04:28:12;;;;;;;0.10;0.10;;;4.40;99.90;;;;;;4990111;28;20519;-70
2021/12/20 04:30:38;;;;;;;0.17;0.17;;;4.40;99.90;;;;;;5003770;28;20033;-70
2021/12/20 04:33:04;;;;;;;0.10;0.10;;;4.40;99.90;;;;;;5007880;28;20056;-71
2021/12/20 04:35:30;;;;;;;0.10;0.10;;;4.50;99.90;;;;;;5009047;28;20018;-71
2021/12/20 04:37:58;;;;;;;0.10;0.10;;;4.50;99.90;;;;;;4998964;28;20037;-71
2021/12/20 04:40:24;;;;;;;0.10;0.10;;;4.50;99.90;;;;;;4989405;28;20019;-70
2021/12/20 04:42:53;;;;;;;0.10;0.10;;;4.60;99.90;;;;;;4989761;28;20022;-70
2021/12/20 04:45:20;;;;;;;0.10;0.10;;;4.60;99.90;;;;;;4989782;28;20046;-70
2021/12/20 04:47:45;;;;;;;0.65;0.65;;;4.60;99.90;;;;;;4989742;28;20038;-71
2021/12/20 04:50:12;;;;;;;0.30;0.30;;;4.50;99.90;;;;;;4989223;28;20031;-71
2021/12/20 04:52:37;;;;;;;0.65;0.65;;;4.50;99.90;;;;;;4989282;28;20546;-70
2021/12/20 04:55:05;;;;;;;0.10;0.10;;;4.50;99.90;;;;;;5001673;28;20101;-70
2021/12/20 04:57:31;;;;;;;0.10;0.10;;;5.40;99.90;;;;;;5009055;28;20040;-70
2021/12/20 04:59:57;;;;;;;0.10;0.10;;;4.60;99.90;;;;;;5008743;28;20032;-70
2021/12/20 05:02:22;;;;;;;0.10;0.10;;;4.70;99.90;;;;;;4999936;28;20026;-70
2021/12/20 05:04:48;;;;;;;0.10;0.10;;;4.80;99.90;;;;;;4989317;28;20039;-70
2021/12/20 05:07:14;;;;;;;0.10;0.10;;;4.80;99.90;;;;;;5000345;28;20461;-70
2021/12/20 05:09:40;;;;;;;1.55;1.45;;;4.80;99.90;;;;;;5011064;28;20030;-71
2021/12/20 05:12:12;;;;;;;0.10;0.10;;;4.90;99.90;;;;;;5005192;28;20071;-70
2021/12/20 05:14:40;;;;;;;0.10;0.10;;;4.80;99.90;;;;;;5019371;28;20149;-71
2021/12/20 05:17:07;;;;;;;0.10;0.10;;;4.80;99.90;;;;;;5012559;28;20147;-70
2021/12/20 05:19:33;;;;;;;0.47;0.47;;;4.80;99.90;;;;;;4997005;28;20034;-71
2021/12/20 05:21:58;;;;;;;0.10;0.10;;;4.70;99.90;;;;;;4992606;28;20045;-71
2021/12/20 05:24:24;;;;;;;0.10;0.10;;;4.70;99.90;;;;;;4992395;28;20473;-70
2021/12/20 05:26:50;;;;;;;1.33;1.30;;;4.60;99.90;;;;;;5005127;28;20045;-71
2021/12/20 05:29:15;;;;;;;0.30;0.30;;;4.60;99.90;;;;;;4994742;28;20038;-71
2021/12/20 05:31:41;;;;;;;0.10;0.10;;;4.70;99.90;;;;;;5008546;28;20046;-71
2021/12/20 05:34:07;;;;;;;0.10;0.10;;;4.80;99.90;;;;;;5012108;28;20025;-73
2021/12/20 05:36:32;;;;;;;0.10;0.10;;;4.70;99.90;;;;;;5011242;28;20392;-71
2021/12/20 05:38:58;;;;;;;0.30;0.30;;;4.70;99.90;;;;;;4992702;28;20500;-71
2021/12/20 05:41:24;;;;;;;0.10;0.10;;;4.80;99.90;;;;;;4992283;28;20484;-71
2021/12/20 05:43:49;;;;;;;0.10;0.10;;;4.80;99.90;;;;;;4992095;28;20026;-70
2021/12/20 05:46:15;;;;;;;0.10;0.10;;;4.70;99.90;;;;;;4992258;28;20129;-72
2021/12/20 05:48:41;;;;;;;0.10;0.10;;;4.80;99.90;;;;;;4991904;28;20038;-71
2021/12/20 05:51:07;;;;;;;0.20;0.20;;;4.80;99.90;;;;;;4991662;28;20113;-70
2021/12/20 05:53:32;;;;;;;0.10;0.10;;;4.80;99.90;;;;;;4991206;28;20046;-71
2021/12/20 05:55:58;;;;;;;2.72;2.53;;;4.80;99.90;;;;;;5003178;28;20192;-71
2021/12/20 05:58:24;;;;;;;0.10;0.10;;;4.70;99.90;;;;;;4991795;28;20116;-71
2021/12/20 06:00:49;;;;;;;0.10;0.10;;;4.80;99.90;;;;;;5011217;28;20030;-71
2021/12/20 06:03:15;;;;;;;0.10;0.10;;;4.80;99.90;;;;;;5009844;28;20034;-70
2021/12/20 06:05:42;;;;;;;0.10;0.10;;;4.80;99.90;;;;;;5000916;28;20212;-73
2021/12/20 06:08:09;;;;;;;0.45;0.45;;;4.80;99.90;;;;;;5008018;28;20040;-70
2021/12/20 06:10:35;;;;;;;0.20;0.20;;;4.80;99.90;;;;;;5009505;28;20026;-71
2021/12/20 06:13:02;;;;;;;1.23;1.17;;;4.80;99.90;;;;;;5011216;28;20029;-70
2021/12/20 06:15:28;;;;;;;0.30;0.30;;;4.80;99.90;;;;;;4997736;28;20451;-71
2021/12/20 06:17:54;;;;;;;0.30;0.30;;;4.70;99.90;;;;;;4995949;28;20036;-72
2021/12/20 06:20:19;;;;;;;0.30;0.30;;;5.60;99.90;;;;;;5021136;28;20029;-71
2021/12/20 06:22:45;;;;;;;0.10;0.10;;;4.80;99.90;;;;;;5010643;28;20022;-71
2021/12/20 06:25:12;;;;;;;0.63;0.63;;;4.80;99.90;;;;;;5009390;28;20506;-70
2021/12/20 06:27:38;;;;;;;0.20;0.20;;;4.70;99.90;;;;;;5011017;28;20452;-71
2021/12/20 06:30:08;;;;;;;0.10;0.10;;;4.60;99.90;;;;;;5003813;28;20109;-71
2021/12/20 06:32:35;;;;;;;0.63;0.63;;;4.60;99.90;;;;;;4991592;28;20022;-71
2021/12/20 06:35:01;;;;;;;0.20;0.20;;;4.70;99.90;;;;;;4991369;28;20035;-71
2021/12/20 06:37:27;;;;;;;0.10;0.10;;;4.70;99.90;;;;;;4990979;28;20420;-71
2021/12/20 06:39:52;;;;;;;0.10;0.10;;;4.70;99.90;;;;;;4990949;28;20476;-72
2021/12/20 06:42:18;;;;;;;0.10;0.10;;;4.70;99.90;;;;;;4991211;28;20026;-71
2021/12/20 06:44:44;;;;;;;0.10;0.10;;;4.70;99.90;;;;;;4973433;28;20034;-72
2021/12/20 06:47:10;;;;;;;0.10;0.10;;;4.70;99.90;;;;;;4991276;28;20053;-72
2021/12/20 06:49:36;;;;;;;0.13;0.13;;;4.70;99.90;;;;;;4993793;28;20045;-71
2021/12/20 06:52:03;;;;;;;0.10;0.10;;;4.70;99.90;;;;;;4997131;28;20033;-73
2021/12/20 06:54:29;;;;;;;0.22;0.22;;;4.80;99.90;;;;;;5009502;28;20029;-72
2021/12/20 06:56:54;;;;;;;0.10;0.10;;;4.80;99.90;;;;;;5010615;28;20392;-71
2021/12/20 06:59:20;;;;;;;0.30;0.30;;;4.80;99.90;;;;;;4999949;28;20022;-71
2021/12/20 07:01:46;;;;;;;0.10;0.10;;;4.90;99.90;;;;;;5010455;28;20114;-71
2021/12/20 07:04:12;;;;;;;0.10;0.10;;;5.00;99.90;;;;;;5010077;28;20038;-70
2021/12/20 07:06:38;;;;;;;0.10;0.10;;;4.90;99.90;;;;;;5005276;28;20571;-71
2021/12/20 07:09:04;;;;;;;5.53;4.30;;;4.80;99.90;;;;;;4990230;28;20034;-72
2021/12/20 07:11:30;;;;;;;0.10;0.10;;;4.80;99.90;;;;;;4990009;28;20106;-71
2021/12/20 07:13:59;;;;;;;0.10;0.10;;;4.90;99.90;;;;;;5000575;28;20188;-72
2021/12/20 07:16:37;;;;;;;0.10;0.10;;;4.90;99.90;;;;;;5005728;28;20038;-73
2021/12/20 07:19:06;;;;;;;0.43;0.43;;;4.90;99.90;;;;;;5007312;28;20061;-71
2021/12/20 07:21:32;;;;;;;0.10;0.10;;;4.90;99.90;;;;;;5004733;28;20077;-70
2021/12/20 07:23:58;;;;;;;0.20;0.20;;;4.80;99.90;;;;;;5002596;28;20038;-70
2021/12/20 07:26:23;;;;;;;0.10;0.10;;;4.80;99.90;;;;;;5005973;28;20026;-70
2021/12/20 07:28:49;;;;;;;0.10;0.10;;;4.80;99.90;;;;;;5005458;28;20645;-73
2021/12/20 07:31:15;;;;;;;0.10;0.10;;;4.90;99.90;;;;;;5002575;28;20062;-74
2021/12/20 07:33:42;;;;;;;0.10;0.10;;;4.90;99.90;;;;;;5005529;28;20091;-71
2021/12/20 07:36:08;;;;;;;0.10;0.10;;;4.90;99.90;;;;;;5006538;28;20107;-73
2021/12/20 07:38:35;;;;;;;0.50;0.50;;;5.10;99.90;;;;;;4998204;28;20021;-71
2021/12/20 07:41:01;;;;;;;0.10;0.10;;;4.80;99.90;;;;;;5003888;28;20028;-71
2021/12/20 07:43:27;;;;;;;0.10;0.10;;;4.90;99.90;;;;;;5006738;28;20022;-71
2021/12/20 07:45:53;;;;;;;0.20;0.20;;;4.90;99.90;;;;;;5013315;28;20096;-72
2021/12/20 07:48:20;;;;;;;1.23;1.23;;;4.90;99.90;;;;;;5013928;28;20047;-71
2021/12/20 07:50:47;;;;;;;0.10;0.10;;;4.90;99.90;;;;;;5013846;28;20033;-71
2021/12/20 07:53:13;;;;;;;0.10;0.10;;;4.90;99.90;;;;;;5012566;28;20526;-72
2021/12/20 07:55:39;;;;;;;0.10;0.10;;;4.90;99.90;;;;;;5004015;28;20117;-71
2021/12/20 07:58:05;;;;;;;0.25;0.25;;;4.80;99.90;;;;;;5007605;28;20440;-73
2021/12/20 08:00:32;;;;;;;0.20;0.20;;;4.80;99.90;;;;;;5007993;28;20060;-71
2021/12/20 08:02:58;;;;;;;0.10;0.10;;;4.80;99.90;;;;;;5000690;28;20030;-71
2021/12/20 08:05:25;;;;;;;0.10;0.10;;;4.70;99.90;;;;;;5003212;28;20022;-71
2021/12/20 08:07:51;;;;;;;0.20;0.20;;;4.80;99.90;;;;;;5007773;28;20079;-71
2021/12/20 08:10:19;;;;;;;0.10;0.10;;;4.80;99.90;;;;;;5001442;28;20026;-71
2021/12/20 08:12:45;;;;;;;0.10;0.10;;;4.80;99.90;;;;;;5008399;28;20336;-71
2021/12/20 08:15:12;;;;;;;0.10;0.10;;;4.80;99.90;;;;;;5005570;28;20069;-71
2021/12/20 08:17:38;;;;;;;0.22;0.22;;;4.90;99.90;;;;;;5008576;28;20029;-71
2021/12/20 08:20:05;;;;;;;0.35;0.35;;;4.80;99.90;;;;;;5005101;28;20111;-72
2021/12/20 08:22:31;;;;;;;0.10;0.10;;;4.90;99.90;;;;;;5006335;28;20040;-71
2021/12/20 08:24:57;;;;;;;1.17;1.08;;;4.90;99.90;;;;;;5005049;28;20385;-70
2021/12/20 08:27:23;;;;;;;0.08;0.08;;;4.80;99.90;;;;;;5008755;28;20030;-73
2021/12/20 08:29:49;;;;;;;0.10;0.10;;;4.80;99.90;;;;;;5004343;28;20394;-69
2021/12/20 08:32:14;;;;;;;0.10;0.10;;;4.70;99.90;;;;;;5008733;28;20029;-68
2021/12/20 08:34:40;;;;;;;4.38;3.50;;;4.80;99.90;;;;;;5004902;28;20440;-67
2021/12/20 08:37:06;;;;;;;0.10;0.10;;;4.80;99.90;;;;;;5005236;28;20057;-72
2021/12/20 08:39:31;;;;;;;0.55;0.55;;;5.00;99.90;;;;;;5007049;28;20034;-71
2021/12/20 08:41:58;;;;;;;0.50;0.50;;;5.00;99.90;;;;;;5008482;28;20491;-72
2021/12/20 08:44:24;;;;;;;0.10;0.10;;;5.50;99.90;;;;;;5020823;22;20060;-73
2021/12/20 08:46:51;;;;;;;0.10;0.10;;;4.90;99.90;;;;;;4996275;28;20025;-74
2021/12/20 08:49:17;;;;;;;0.10;0.10;;;5.10;99.90;;;;;;4993236;28;20034;-72
2021/12/20 08:51:45;;;;;;;0.10;0.10;;;5.00;99.90;;;;;;4996033;28;20514;-69
2021/12/20 08:54:11;;;;;;;0.32;0.32;;;5.00;99.90;;;;;;4997371;28;20643;-72
2021/12/20 08:56:37;;;;;;;0.13;0.13;;;5.10;99.90;;;;;;4996377;28;20041;-71
2021/12/20 08:59:09;;;;;;;0.10;0.10;;;5.00;99.90;;;;;;4993497;28;20101;-75
2021/12/20 09:01:35;;;;;;;0.10;0.10;;;5.00;99.90;;;;;;4999201;28;20026;-72
2021/12/20 09:04:04;;;;;;;0.10;0.10;;;5.10;99.90;;;;;;4994155;28;20034;-74
2021/12/20 09:06:30;;;;;;;0.10;0.10;;;5.20;99.90;;;;;;5001650;28;20088;-73
2021/12/20 09:08:57;;;;;;;0.10;0.10;;;5.30;99.90;;;;;;4993954;28;20045;-74
2021/12/20 09:11:25;;;;;;;1.13;1.13;;;5.30;99.90;;;;;;4994473;28;20038;-76
2021/12/20 09:13:51;;;;;;;0.10;0.10;;;5.30;99.90;;;;;;4996064;28;20034;-73
2021/12/20 09:16:17;;;;;;;0.10;0.10;;;5.30;99.90;;;;;;4989663;28;20023;-75
2021/12/20 09:18:43;;;;;;;0.77;0.77;;;5.30;99.90;;;;;;4988840;28;20530;-75
2021/12/20 09:21:10;;;;;;;0.10;0.10;;;5.30;99.90;;;;;;4986157;28;20456;-74
2021/12/20 09:23:37;;;;;;;0.10;0.10;;;5.30;99.90;;;;;;4990992;28;20034;-74
2021/12/20 09:26:03;;;;;;;0.10;0.10;;;5.40;99.90;;;;;;4990328;28;20031;-74
2021/12/20 09:28:30;;;;;;;0.17;0.17;;;5.40;99.90;;;;;;4985170;28;20033;-72
2021/12/20 09:30:56;;;;;;;0.10;0.10;;;5.40;99.90;;;;;;4983532;28;20037;-71
2021/12/20 09:33:21;;;;;;;0.10;0.10;;;5.30;99.90;;;;;;4988092;28;20038;-70
2021/12/20 09:35:50;;;;;;;0.10;0.10;;;5.50;99.90;;;;;;4988900;28;20121;-72
2021/12/20 09:38:17;;;;;;;0.10;0.10;;;5.60;99.90;;;;;;4993748;28;20038;-73
2021/12/20 09:41:12;;;;;;;0.10;0.10;;;5.60;99.90;;;;;;4989913;28;20169;-77
2021/12/20 09:43:31;;;;;;;4.65;4.22;;;5.60;99.90;;;;;;4989829;28;20072;-74
2021/12/20 09:45:57;;;;;;;0.22;0.22;;;5.70;99.90;;;;;;4991153;28;20049;-74
2021/12/20 09:48:24;;;;;;;0.00;0.00;;;5.70;99.90;;;;;;4984700;28;20042;-76
2021/12/20 09:50:50;;;;;;;0.10;0.10;;;5.80;99.90;;;;;;4986587;28;20033;-77
2021/12/20 09:53:16;;;;;;;0.13;0.13;;;5.70;99.90;;;;;;4996408;28;20034;-76
2021/12/20 09:55:50;;;;;;;0.10;0.10;;;5.70;99.90;;;;;;4999357;28;20038;-76
2021/12/20 09:58:21;;;;;;;0.10;0.10;;;5.70;99.90;;;;;;4996205;28;20022;-73
2021/12/20 10:00:48;;;;;;;0.10;0.10;;;5.70;99.90;;;;;;4990188;28;20038;-77
2021/12/20 10:04:02;;;;;;;0.10;0.10;;;5.70;99.90;;;;;;4986257;28;20030;-76
2021/12/20 10:06:31;;;;;;;;;;;5.70;99.90;;;;;;4997364;28;20138;-76
2021/12/20 10:09:10;;;;;;;0.10;0.10;;;5.80;99.90;;;;;;4992425;28;19921;-77
2021/12/20 10:11:37;;;;;;;0.10;0.10;;;5.90;99.90;;;;;;4983043;28;20030;-74
2021/12/20 10:14:19;;;;;;;0.10;0.10;;;5.90;99.90;;;;;;4993726;28;20093;-77
2021/12/20 10:16:45;;;;;;;0.10;0.10;;;5.80;99.90;;;;;;4985321;28;20026;-71
2021/12/20 10:19:34;;;;;;;0.10;0.10;;;5.90;99.90;;;;;;4990597;28;20041;-72
2021/12/20 10:22:02;;;;;;;0.70;0.70;;;6.00;99.90;;;;;;4984610;28;20020;-71
2021/12/20 10:24:34;;;;;;;0.10;0.10;;;6.20;99.90;;;;;;4990691;28;20556;-70
2021/12/20 10:27:00;;;;;;;0.13;0.13;;;6.30;99.90;;;;;;4986009;28;20030;-72
2021/12/20 10:29:26;;;;;;;0.22;0.22;;;6.40;99.90;;;;;;4991148;28;20039;-72
2021/12/20 10:31:53;;;;;;;0.17;0.17;;;6.20;99.90;;;;;;4983016;28;20164;-70
2021/12/20 10:34:33;;;;;;;0.10;0.10;;;6.20;99.90;;;;;;4992185;28;20492;-70
2021/12/20 10:37:00;;;;;;;0.10;0.10;;;6.20;99.90;;;;;;4986428;28;20026;-69
2021/12/20 10:39:47;;;;;;;0.20;0.20;;;6.30;99.90;;;;;;4988593;28;20026;-70
2021/12/20 10:42:17;;;;;;;0.10;0.10;;;6.40;99.90;;;;;;4987275;28;20029;-70
2021/12/20 10:44:43;;;;;;;0.20;0.20;;;6.50;99.90;;;;;;4987576;28;20536;-70
2021/12/20 10:47:25;;;;;;;0.00;0.00;;;6.60;99.90;;;;;;4987157;28;20552;-70
2021/12/20 10:49:51;;;;;;;0.20;0.20;;;6.60;99.90;;;;;;4986138;28;20081;-70
2021/12/20 10:52:27;;;;;;;0.10;0.10;;;6.40;99.90;;;;;;4977122;28;20501;-71
2021/12/20 10:54:52;;;;;;;0.10;0.10;;;6.10;99.90;;;;;;4984094;28;20030;-70
2021/12/20 10:57:28;;;;;;;0.10;0.10;;;6.10;99.90;;;;;;4986094;28;20480;-69
2021/12/20 11:00:15;;;;;;;0.00;0.00;;;6.00;99.90;;;;;;4983336;28;20026;-72
2021/12/20 11:05:57;;;;;;;0.10;0.10;;;5.90;99.90;;;;;;4992621;28;20032;-72
2021/12/20 11:11:11;;;;;;;0.10;0.10;;;5.80;99.90;;;;;;4993678;28;20049;-73
2021/12/20 11:13:38;;;;;;;0.52;0.52;;;5.80;99.90;;;;;;4999596;28;20091;-71
2021/12/20 11:16:22;;;;;;;0.10;0.10;;;5.90;99.90;;;;;;4991491;28;20026;-72
2021/12/20 11:19:07;;;;;;;0.10;0.10;;;5.80;99.90;;;;;;4994703;28;20196;-71
2021/12/20 11:21:34;;;;;;;1.80;1.23;;;5.90;99.90;;;;;;4995955;28;20026;-72
2021/12/20 11:24:00;;;;;;;0.10;0.10;;;6.10;99.90;;;;;;4995957;28;20168;-71
2021/12/20 11:26:27;;;;;;;0.10;0.10;;;6.20;99.90;;;;;;4996864;28;20472;-71
2021/12/20 11:28:57;;;;;;;0.40;0.40;;;6.10;99.90;;;;;;4999837;28;20452;-72
2021/12/20 11:31:23;;;;;;;0.10;0.10;;;6.30;99.90;;;;;;4997979;28;20035;-73
2021/12/20 11:33:49;;;;;;;0.20;0.20;;;6.50;99.90;;;;;;4995489;28;20400;-74
2021/12/20 11:36:15;;;;;;;0.10;0.10;;;6.80;99.90;;;;;;4993435;28;20040;-73
2021/12/20 11:38:41;;;;;;;0.10;0.10;;;7.00;99.90;;;;;;4999612;28;20030;-72
2021/12/20 11:41:07;;;;;;;0.10;0.10;;;7.00;99.90;;;;;;4998080;28;20026;-70
2021/12/20 11:43:33;;;;;;;0.10;0.10;;;7.20;99.90;;;;;;5003579;28;20058;-70
2021/12/20 11:45:59;;;;;;;0.10;0.10;;;7.40;99.90;;;;;;4995447;28;20045;-72
2021/12/20 11:48:28;;;;;;;0.10;0.10;;;7.50;99.90;;;;;;5001135;28;20023;-69
2021/12/20 11:50:58;;;;;;;2.53;1.48;;;7.70;99.90;;;;;;5010092;28;20025;-70
2021/12/20 11:53:24;;;;;;;0.10;0.10;;;7.70;99.90;;;;;;4996217;28;20033;-71
2021/12/20 11:55:54;;;;;;;0.10;0.10;;;7.80;99.90;;;;;;4994940;28;20041;-72
2021/12/20 11:58:25;;;;;;;0.10;0.10;;;7.80;99.90;;;;;;4996709;28;20022;-70
2021/12/20 12:00:56;;;;;;;0.10;0.10;;;7.60;99.90;;;;;;4993073;28;20096;-69
2021/12/20 12:03:31;;;;;;;1.40;1.35;;;7.30;99.90;;;;;;4991702;28;20035;-72
2021/12/20 12:06:27;;;;;;;0.10;0.10;;;7.10;99.90;;;;;;4990794;28;20018;-71
2021/12/20 12:08:59;;;;;;;0.00;0.00;;;6.60;99.90;;;;;;4993473;28;20091;-72
2021/12/20 12:11:24;;;;;;;0.10;0.10;;;6.60;99.90;;;;;;4994671;28;20035;-71
2021/12/20 12:14:00;;;;;;;0.10;0.10;;;6.60;99.90;;;;;;4988660;28;20066;-72
2021/12/20 12:16:53;;;;;;;0.10;0.10;;;6.60;99.90;;;;;;5002080;28;20018;-72
2021/12/20 12:19:45;;;;;;;0.10;0.10;;;6.60;99.90;;;;;;5001220;28;20057;-72
2021/12/20 12:22:26;;;;;;;0.35;0.35;;;6.70;99.90;;;;;;5004448;28;20034;-72
2021/12/20 12:24:54;;;;;;;0.10;0.10;;;6.70;99.90;;;;;;4997795;28;20034;-75
2021/12/20 12:27:22;;;;;;;0.10;0.10;;;6.70;99.90;;;;;;5003746;28;20022;-73
2021/12/20 12:30:13;;;;;;;0.10;0.10;;;6.70;99.90;;;;;;4998113;28;20021;-72
2021/12/20 12:32:48;;;;;;;0.10;0.10;;;6.70;99.90;;;;;;5001602;28;20112;-73
2021/12/20 12:35:56;;;;;;;0.13;0.13;;;6.80;99.90;;;;;;4999342;28;20157;-72
2021/12/20 12:38:48;;;;;;;0.40;0.40;;;6.70;99.90;;;;;;4992488;28;20068;-74
2021/12/20 12:41:20;;;;;;;0.10;0.10;;;6.60;99.90;;;;;;4995246;28;20026;-74
2021/12/20 12:43:58;;;;;;;0.10;0.10;;;6.60;99.90;;;;;;4993069;28;20038;-72
2021/12/20 12:46:36;;;;;;;0.10;0.10;;;6.50;99.90;;;;;;4994469;28;20277;-72
2021/12/20 12:49:20;;;;;;;0.10;0.10;;;6.60;99.90;;;;;;4995144;28;20110;-73
2021/12/20 12:51:51;;;;;;;0.10;0.10;;;6.50;99.90;;;;;;4989642;28;20084;-75
2021/12/20 12:54:36;;;;;;;0.10;0.10;;;6.50;99.90;;;;;;4990249;28;20121;-72
2021/12/20 12:57:11;;;;;;;4.18;1.95;;;6.40;99.90;;;;;;4992902;28;20037;-71
2021/12/20 13:00:00;;;;;;;0.20;0.20;;;6.30;99.90;;;;;;4986994;28;20516;-71
2021/12/20 13:02:29;;;;;;;0.10;0.10;;;6.30;99.90;;;;;;4991856;28;20022;-69
2021/12/20 13:05:00;;;;;;;0.10;0.10;;;6.20;99.90;;;;;;4992886;28;20038;-71
2021/12/20 13:07:35;;;;;;;0.10;0.10;;;6.20;99.90;;;;;;4991841;28;20034;-70
2021/12/20 13:10:15;;;;;;;1.55;1.45;;;6.10;99.90;;;;;;4991465;28;20031;-72
2021/12/20 13:12:47;;;;;;;0.10;0.10;;;6.10;99.90;;;;;;4989327;28;20030;-70
2021/12/20 13:15:22;;;;;;;0.35;0.35;;;6.10;99.90;;;;;;4992734;28;20026;-72
2021/12/20 13:17:51;;;;;;;0.00;0.00;;;6.10;99.90;;;;;;4992465;28;20053;-71
2021/12/20 13:20:34;;;;;;;0.30;0.30;;;6.10;99.90;;;;;;4995240;28;20022;-71